Time;durP1;ratioP1;P1;durP2;ratioP2;P2;SDS_P1;SDS_P2;PMS_P1;PMS_P2;Temp;Humidity;BMP_temperature;BMP_pressure;BME280_temperature;BME280_humidity;BME280_pressure;Samples;Min_cycle;Max_cycle;Signal;HPM_P1;HPM_P2
2020/12/25 00:01:20;;;;;;;13.02;10.82;;;9.00;98.70;;;;;;5111466;28;20639;-78
2020/12/25 00:03:46;;;;;;;11.73;9.65;;;9.00;98.70;;;;;;5109928;28;20163;-78
2020/12/25 00:06:15;;;;;;;11.98;9.95;;;9.00;98.70;;;;;;5110100;28;20242;-78
2020/12/25 00:08:40;;;;;;;13.80;10.70;;;9.10;98.60;;;;;;5110704;28;20205;-78
2020/12/25 00:11:06;;;;;;;15.23;9.73;;;9.00;98.80;;;;;;5111330;28;20219;-78
2020/12/25 00:13:31;;;;;;;13.80;10.40;;;9.00;98.70;;;;;;5110984;28;20179;-78
2020/12/25 00:16:00;;;;;;;11.00;9.90;;;9.00;98.60;;;;;;5109288;28;20180;-78
2020/12/25 00:18:29;;;;;;;10.73;9.50;;;9.00;98.60;;;;;;5109804;28;20199;-78
2020/12/25 00:20:55;;;;;;;14.05;9.95;;;9.00;98.60;;;;;;5110915;28;20181;-78
2020/12/25 00:23:20;;;;;;;11.93;10.07;;;9.00;98.80;;;;;;5109528;28;20179;-78
2020/12/25 00:25:46;;;;;;;12.93;10.80;;;9.00;98.70;;;;;;5111345;28;20419;-78
2020/12/25 00:28:13;;;;;;;14.80;11.47;;;9.00;98.80;;;;;;5110481;28;20175;-78
2020/12/25 00:30:54;;;;;;;13.15;11.40;;;9.00;98.70;;;;;;5110082;28;20394;-78
2020/12/25 00:33:22;;;;;;;12.18;10.95;;;9.00;98.60;;;;;;5108775;28;20217;-78
2020/12/25 00:35:48;;;;;;;11.85;10.48;;;9.00;98.60;;;;;;5110790;28;20267;-78
2020/12/25 00:38:13;;;;;;;13.27;11.87;;;9.00;98.70;;;;;;5109450;28;20298;-78
2020/12/25 00:40:45;;;;;;;14.07;11.10;;;8.90;98.80;;;;;;5109287;28;20188;-78
2020/12/25 00:43:11;;;;;;;14.18;11.32;;;8.90;98.90;;;;;;5110008;28;20182;-78
2020/12/25 00:45:39;;;;;;;12.87;10.20;;;8.90;99.00;;;;;;5110773;28;20183;-78
2020/12/25 00:48:05;;;;;;;14.23;10.60;;;8.90;98.90;;;;;;5110034;28;20267;-78
2020/12/25 00:50:31;;;;;;;13.63;11.17;;;8.90;98.80;;;;;;5108996;28;20299;-77
2020/12/25 00:52:56;;;;;;;14.27;11.00;;;8.90;99.00;;;;;;5108298;28;20440;-77
2020/12/25 00:55:25;;;;;;;13.17;10.70;;;8.80;99.10;;;;;;5108238;28;20206;-77
2020/12/25 00:57:50;;;;;;;13.32;10.10;;;8.80;99.20;;;;;;5110350;28;20596;-78
2020/12/25 01:00:16;;;;;;;14.03;10.80;;;8.80;99.20;;;;;;5109486;28;20225;-78
2020/12/25 01:02:47;;;;;;;11.30;10.10;;;8.80;99.30;;;;;;5109040;28;20617;-78
2020/12/25 01:05:13;;;;;;;13.20;10.10;;;8.80;99.10;;;;;;5108630;28;20196;-77
2020/12/25 01:07:41;;;;;;;12.10;10.33;;;8.80;99.10;;;;;;5109895;28;20268;-78
2020/12/25 01:10:10;;;;;;;11.75;9.90;;;8.80;99.20;;;;;;5108509;28;20183;-78
2020/12/25 01:12:38;;;;;;;10.60;8.38;;;8.80;99.10;;;;;;5107896;28;20690;-77
2020/12/25 01:15:04;;;;;;;9.85;7.53;;;8.80;99.00;;;;;;5109649;28;20212;-77
2020/12/25 01:17:32;;;;;;;7.80;7.07;;;8.80;99.10;;;;;;5109366;28;20662;-78
2020/12/25 01:20:04;;;;;;;8.82;7.20;;;8.80;98.90;;;;;;5109074;28;20182;-77
2020/12/25 01:22:33;;;;;;;8.63;6.88;;;8.80;98.80;;;;;;5108906;28;20486;-78
2020/12/25 01:25:01;;;;;;;7.22;6.53;;;8.80;98.60;;;;;;5107796;28;20583;-78
2020/12/25 01:27:29;;;;;;;7.97;7.18;;;8.80;98.60;;;;;;5109113;28;20176;-78
2020/12/25 01:29:58;;;;;;;8.88;6.32;;;8.80;98.70;;;;;;5108128;28;20202;-78
2020/12/25 01:32:34;;;;;;;6.68;6.00;;;8.80;98.70;;;;;;5109181;28;20544;-78
2020/12/25 01:35:06;;;;;;;6.80;6.10;;;8.80;98.60;;;;;;5109518;28;20182;-78
2020/12/25 01:37:32;;;;;;;6.90;5.90;;;8.80;98.70;;;;;;5108485;28;20266;-78
2020/12/25 01:40:04;;;;;;;7.60;6.60;;;8.70;99.00;;;;;;5109019;28;20723;-78
2020/12/25 01:42:32;;;;;;;9.32;7.00;;;8.80;99.10;;;;;;5108242;28;20239;-77
2020/12/25 01:44:58;;;;;;;6.72;5.45;;;8.80;98.90;;;;;;5105346;28;20572;-78
2020/12/25 01:47:24;;;;;;;6.27;5.50;;;8.80;98.90;;;;;;5109291;28;20175;-78
2020/12/25 01:49:53;;;;;;;6.47;5.80;;;8.80;98.90;;;;;;5107515;28;20719;-78
2020/12/25 01:52:23;;;;;;;6.70;5.45;;;8.80;98.70;;;;;;5108486;28;20263;-78
2020/12/25 01:54:52;;;;;;;7.43;6.15;;;8.80;98.50;;;;;;5109034;28;20203;-78
2020/12/25 01:57:24;;;;;;;8.38;4.70;;;8.80;98.50;;;;;;5108888;28;20279;-78
2020/12/25 01:59:57;;;;;;;6.15;5.07;;;8.80;98.50;;;;;;5109038;28;20650;-78
2020/12/25 02:02:27;;;;;;;6.53;4.80;;;8.80;98.40;;;;;;5107495;28;20183;-78
2020/12/25 02:04:55;;;;;;;6.30;5.03;;;8.80;98.50;;;;;;5109005;28;20575;-78
2020/12/25 02:07:24;;;;;;;6.18;4.50;;;8.80;98.50;;;;;;5106934;28;20252;-78
2020/12/25 02:09:53;;;;;;;6.43;5.10;;;8.80;98.60;;;;;;5108540;28;20229;-78
2020/12/25 02:12:18;;;;;;;7.78;5.30;;;8.80;98.60;;;;;;5108012;28;20175;-78
2020/12/25 02:14:47;;;;;;;6.50;5.20;;;8.70;98.60;;;;;;5108145;28;20187;-78
2020/12/25 02:17:13;;;;;;;7.20;5.00;;;8.70;98.60;;;;;;5107379;28;20203;-78
2020/12/25 02:19:39;;;;;;;6.83;5.00;;;8.70;98.50;;;;;;5107561;28;20256;-78
2020/12/25 02:22:08;;;;;;;5.15;4.65;;;8.70;98.70;;;;;;5108063;28;20172;-79
2020/12/25 02:24:33;;;;;;;6.18;4.68;;;8.70;98.40;;;;;;5106390;28;20245;-78
2020/12/25 02:26:59;;;;;;;5.20;4.70;;;8.60;98.70;;;;;;5108249;28;20192;-78
2020/12/25 02:29:25;;;;;;;6.03;5.43;;;8.60;98.70;;;;;;5107997;28;20252;-78
2020/12/25 02:31:53;;;;;;;6.67;5.43;;;8.60;98.70;;;;;;5107887;28;20539;-78
2020/12/25 02:34:19;;;;;;;7.38;5.40;;;8.60;98.70;;;;;;5106630;28;20180;-78
2020/12/25 02:36:44;;;;;;;8.20;5.77;;;8.60;98.80;;;;;;5107274;28;20343;-78
2020/12/25 02:39:10;;;;;;;7.23;5.77;;;8.50;98.90;;;;;;5107759;28;20176;-78
2020/12/25 02:41:39;;;;;;;8.60;5.70;;;8.60;99.00;;;;;;5107952;28;20184;-78
2020/12/25 02:44:13;;;;;;;5.90;5.28;;;8.60;98.80;;;;;;5108172;28;20833;-78
2020/12/25 02:46:42;;;;;;;6.38;5.47;;;8.60;99.00;;;;;;5107817;28;20186;-78
2020/12/25 02:49:10;;;;;;;5.97;5.30;;;8.60;98.80;;;;;;5107360;28;20717;-78
2020/12/25 02:51:36;;;;;;;5.35;4.85;;;8.60;98.60;;;;;;5107728;28;20735;-78
2020/12/25 02:54:10;;;;;;;6.23;5.00;;;8.60;98.60;;;;;;5108490;28;20183;-78
2020/12/25 02:56:39;;;;;;;5.00;4.50;;;8.50;98.70;;;;;;5109609;28;20218;-78
2020/12/25 02:59:07;;;;;;;5.85;4.68;;;8.50;98.70;;;;;;5111849;28;20168;-78
2020/12/25 03:01:35;;;;;;;7.60;5.55;;;8.50;98.60;;;;;;5111433;28;20168;-78
2020/12/25 03:04:04;;;;;;;6.90;4.70;;;8.50;98.80;;;;;;5110458;28;20180;-78
2020/12/25 03:06:36;;;;;;;8.05;5.82;;;8.40;99.00;;;;;;5109082;28;20278;-78
2020/12/25 03:09:04;;;;;;;6.28;5.65;;;8.50;99.00;;;;;;5110329;28;20189;-78
2020/12/25 03:11:29;;;;;;;6.00;5.40;;;8.40;99.10;;;;;;5111829;28;20182;-78
2020/12/25 03:13:55;;;;;;;7.23;5.43;;;8.50;99.00;;;;;;5112142;28;20547;-78
2020/12/25 03:16:26;;;;;;;5.77;4.70;;;8.40;98.90;;;;;;5111722;28;20392;-78
2020/12/25 03:19:01;;;;;;;6.00;5.13;;;8.40;99.00;;;;;;5111134;28;20180;-78
2020/12/25 03:21:30;;;;;;;6.00;5.40;;;8.50;98.90;;;;;;5110697;28;20171;-78
2020/12/25 03:24:04;;;;;;;8.63;5.00;;;8.40;98.90;;;;;;5109810;28;20270;-78
2020/12/25 03:26:32;;;;;;;5.53;4.80;;;8.40;99.20;;;;;;5109657;28;20530;-78
2020/12/25 03:29:10;;;;;;;5.05;4.55;;;8.50;98.90;;;;;;5110543;28;20176;-78
2020/12/25 03:31:35;;;;;;;5.63;5.03;;;8.50;98.70;;;;;;5111362;28;20179;-78
2020/12/25 03:34:01;;;;;;;7.73;4.10;;;8.40;98.80;;;;;;5109348;28;20187;-78
2020/12/25 03:36:30;;;;;;;6.60;4.10;;;8.40;98.80;;;;;;5110248;28;20180;-78
2020/12/25 03:38:59;;;;;;;4.90;4.40;;;8.40;98.80;;;;;;5110098;28;20711;-78
2020/12/25 03:41:27;;;;;;;4.22;3.83;;;8.40;98.90;;;;;;5110636;28;20176;-78
2020/12/25 03:43:53;;;;;;;4.22;3.63;;;8.40;98.90;;;;;;5109549;28;20180;-78
2020/12/25 03:46:18;;;;;;;5.07;3.40;;;8.40;98.80;;;;;;5110547;28;20179;-78
2020/12/25 03:48:50;;;;;;;4.13;3.30;;;8.40;98.70;;;;;;5109542;28;20232;-78
2020/12/25 03:51:15;;;;;;;4.15;3.75;;;8.50;99.00;;;;;;5109335;28;20282;-78
2020/12/25 03:53:41;;;;;;;4.53;3.80;;;8.50;98.90;;;;;;5108923;28;20315;-78
2020/12/25 03:56:06;;;;;;;5.87;3.33;;;8.50;98.80;;;;;;5110063;28;20553;-78
2020/12/25 03:58:38;;;;;;;4.43;4.00;;;8.50;98.60;;;;;;5108330;28;20631;-78
2020/12/25 04:01:06;;;;;;;3.75;3.00;;;8.50;98.60;;;;;;5109625;28;20211;-78
2020/12/25 04:03:34;;;;;;;5.45;3.10;;;8.50;98.50;;;;;;5109600;28;20660;-78
2020/12/25 04:06:00;;;;;;;6.78;3.20;;;8.50;98.60;;;;;;5110216;28;20180;-78
2020/12/25 04:08:35;;;;;;;3.53;3.00;;;8.50;98.50;;;;;;5108985;28;20249;-78
2020/12/25 04:11:03;;;;;;;3.20;2.90;;;8.50;98.50;;;;;;5108648;28;20175;-78
2020/12/25 04:13:29;;;;;;;5.32;3.17;;;8.50;98.70;;;;;;5109966;28;20187;-78
2020/12/25 04:16:02;;;;;;;3.30;2.73;;;8.60;98.50;;;;;;5109943;28;20179;-78
2020/12/25 04:18:29;;;;;;;3.30;3.00;;;8.60;98.30;;;;;;5109810;28;20196;-78
2020/12/25 04:20:56;;;;;;;3.33;2.70;;;8.50;98.30;;;;;;5109974;28;20663;-78
2020/12/25 04:23:22;;;;;;;3.30;3.00;;;8.50;98.60;;;;;;5109574;28;20187;-78
2020/12/25 04:26:00;;;;;;;5.10;2.80;;;8.50;98.60;;;;;;5108438;28;20180;-78
2020/12/25 04:28:28;;;;;;;3.50;3.20;;;8.40;98.60;;;;;;5108570;28;20630;-78
2020/12/25 04:30:54;;;;;;;2.97;2.67;;;8.50;98.70;;;;;;5108558;28;20219;-78
2020/12/25 04:33:22;;;;;;;3.33;2.90;;;8.40;98.60;;;;;;5109602;28;20168;-78
2020/12/25 04:35:48;;;;;;;6.05;4.10;;;8.50;98.60;;;;;;5108330;28;20192;-78
2020/12/25 04:38:19;;;;;;;5.50;4.60;;;8.40;98.50;;;;;;5109429;28;20204;-78
2020/12/25 04:40:51;;;;;;;6.20;4.78;;;8.50;98.40;;;;;;5108352;28;20184;-78
2020/12/25 04:43:17;;;;;;;5.88;4.05;;;8.40;98.70;;;;;;5108776;28;20195;-78
2020/12/25 04:45:49;;;;;;;4.00;3.45;;;8.30;98.80;;;;;;5109542;28;20195;-78
2020/12/25 04:48:15;;;;;;;7.03;4.70;;;8.30;98.80;;;;;;5108067;28;20182;-78
2020/12/25 04:50:47;;;;;;;9.80;6.50;;;8.30;99.00;;;;;;5110001;28;20578;-79
2020/12/25 04:53:31;;;;;;;20.75;7.93;;;8.30;98.90;;;;;;5109435;28;20459;-79
2020/12/25 04:56:00;;;;;;;7.57;5.20;;;8.30;98.80;;;;;;5109736;28;20186;-78
2020/12/25 04:58:28;;;;;;;8.40;5.78;;;8.40;98.60;;;;;;5109008;28;20593;-78
2020/12/25 05:01:07;;;;;;;9.02;6.85;;;8.30;98.70;;;;;;5108864;28;20207;-78
2020/12/25 05:03:36;;;;;;;5.55;4.13;;;8.30;98.90;;;;;;5110093;28;20536;-79
2020/12/25 05:06:07;;;;;;;4.85;3.40;;;8.30;98.90;;;;;;5109828;28;20643;-78
2020/12/25 05:08:43;;;;;;;2.58;2.33;;;8.20;99.00;;;;;;5109412;28;20221;-78
2020/12/25 05:11:11;;;;;;;5.05;3.40;;;8.20;98.90;;;;;;5107526;28;20252;-78
2020/12/25 05:14:11;;;;;;;4.30;3.35;;;8.30;98.70;;;;;;5109288;28;20758;-78
2020/12/25 05:16:41;;;;;;;6.40;4.15;;;8.30;98.80;;;;;;5084618;28;20222;-79
2020/12/25 05:19:15;;;;;;;5.78;3.90;;;8.30;98.90;;;;;;5107004;28;20169;-78
2020/12/25 05:21:44;;;;;;;5.50;4.32;;;8.20;98.80;;;;;;5108408;28;20175;-78
2020/12/25 05:24:10;;;;;;;3.85;3.20;;;8.20;99.20;;;;;;5108765;28;20197;-79
2020/12/25 05:26:36;;;;;;;5.60;3.63;;;8.20;98.90;;;;;;5108809;28;20191;-79
2020/12/25 05:29:03;;;;;;;4.27;3.00;;;8.20;98.90;;;;;;5108903;28;20182;-78
2020/12/25 05:31:34;;;;;;;5.35;4.30;;;8.20;98.80;;;;;;5109309;28;20187;-78
2020/12/25 05:34:00;;;;;;;5.40;3.03;;;8.20;99.00;;;;;;5106434;28;20530;-78
2020/12/25 05:36:32;;;;;;;5.72;3.25;;;8.20;98.90;;;;;;5108439;28;20180;-78
2020/12/25 05:38:58;;;;;;;6.10;3.97;;;8.20;98.90;;;;;;5108837;28;20167;-78
2020/12/25 05:41:31;;;;;;;7.40;4.50;;;8.20;98.80;;;;;;5107533;28;20179;-78
2020/12/25 05:44:00;;;;;;;6.93;3.75;;;8.20;99.10;;;;;;5108584;28;20577;-78
2020/12/25 05:46:30;;;;;;;3.97;3.20;;;8.20;98.80;;;;;;5106865;28;20209;-78
2020/12/25 05:48:58;;;;;;;3.63;2.45;;;8.20;99.00;;;;;;5106837;28;20505;-78
2020/12/25 05:51:26;;;;;;;2.78;2.08;;;8.10;98.90;;;;;;5108498;28;20186;-78
2020/12/25 05:53:57;;;;;;;2.20;2.00;;;8.20;98.80;;;;;;5108053;28;20694;-78
2020/12/25 05:56:23;;;;;;;2.10;1.90;;;8.10;98.90;;;;;;5108242;28;20666;-78
2020/12/25 05:58:54;;;;;;;2.78;2.00;;;8.10;99.00;;;;;;5106633;28;20807;-78
2020/12/25 06:01:22;;;;;;;1.80;1.70;;;8.20;98.90;;;;;;5108474;28;20524;-79
2020/12/25 06:03:51;;;;;;;2.20;2.00;;;8.20;98.80;;;;;;5108411;28;20175;-78
2020/12/25 06:06:28;;;;;;;3.83;2.70;;;8.20;99.00;;;;;;5107600;28;20710;-78
2020/12/25 06:08:59;;;;;;;2.40;2.20;;;8.20;98.80;;;;;;5108645;28;20204;-78
2020/12/25 06:11:30;;;;;;;2.90;2.28;;;8.20;99.10;;;;;;5106909;28;20191;-78
2020/12/25 06:14:04;;;;;;;3.03;2.72;;;8.20;98.70;;;;;;5108659;28;20156;-78
2020/12/25 06:16:30;;;;;;;4.15;2.65;;;8.20;98.60;;;;;;5108219;28;20180;-78
2020/12/25 06:19:25;;;;;;;2.67;2.40;;;8.20;98.60;;;;;;5108228;28;20592;-78
2020/12/25 06:22:08;;;;;;;10.10;2.60;;;8.20;98.80;;;;;;5106062;28;20213;-78
2020/12/25 06:24:38;;;;;;;3.42;2.65;;;8.20;98.70;;;;;;5107446;28;20209;-78
2020/12/25 06:27:07;;;;;;;3.20;2.90;;;8.10;98.50;;;;;;5108174;28;20171;-78
2020/12/25 06:29:33;;;;;;;4.43;4.03;;;8.10;98.70;;;;;;5107890;28;20172;-78
2020/12/25 06:32:10;;;;;;;3.87;3.47;;;8.10;98.60;;;;;;5110999;28;20175;-78
2020/12/25 06:34:46;;;;;;;7.65;6.40;;;8.10;98.50;;;;;;5111360;28;20221;-78
2020/12/25 06:37:14;;;;;;;106.15;96.03;;;8.10;98.60;;;;;;5111265;28;20682;-78
2020/12/25 06:39:46;;;;;;;320.00;242.45;;;8.00;98.60;;;;;;5111377;28;20167;-78
2020/12/25 06:42:15;;;;;;;160.40;116.03;;;8.10;98.50;;;;;;5112080;28;20167;-78
2020/12/25 06:44:48;;;;;;;89.22;66.60;;;8.10;98.40;;;;;;5111165;28;20167;-78
2020/12/25 06:47:35;;;;;;;36.03;29.85;;;8.10;98.80;;;;;;5112262;28;20309;-78
2020/12/25 06:50:16;;;;;;;183.55;129.30;;;8.20;98.70;;;;;;5111677;28;20532;-78
2020/12/25 06:52:57;;;;;;;71.78;52.58;;;8.10;98.50;;;;;;5110757;28;20223;-78
2020/12/25 06:55:40;;;;;;;10.50;9.50;;;8.10;98.60;;;;;;5110765;28;20180;-78
2020/12/25 06:58:12;;;;;;;8.18;6.68;;;8.00;98.50;;;;;;5110141;28;20198;-78
2020/12/25 07:00:40;;;;;;;6.13;5.53;;;7.90;98.90;;;;;;5109318;28;20200;-78
2020/12/25 07:03:16;;;;;;;10.95;9.85;;;7.90;98.90;;;;;;5110402;28;20249;-78
2020/12/25 07:05:48;;;;;;;13.32;12.30;;;7.90;98.90;;;;;;5111505;28;20596;-78
2020/12/25 07:08:32;;;;;;;19.17;17.75;;;7.90;98.90;;;;;;5109998;28;20237;-78
2020/12/25 07:11:05;;;;;;;11.48;10.38;;;8.00;98.80;;;;;;5111234;28;20183;-79
2020/12/25 07:13:38;;;;;;;12.43;11.30;;;8.00;98.80;;;;;;5110999;28;20539;-79
2020/12/25 07:16:09;;;;;;;10.48;9.55;;;8.00;98.80;;;;;;5111473;28;20179;-79
2020/12/25 07:18:41;;;;;;;8.25;6.85;;;8.00;98.80;;;;;;5109245;28;20196;-79
2020/12/25 07:21:08;;;;;;;7.80;7.10;;;8.10;98.70;;;;;;5111395;28;20593;-79
2020/12/25 07:23:47;;;;;;;7.80;6.43;;;8.00;98.60;;;;;;5111084;28;20167;-79
2020/12/25 07:26:19;;;;;;;6.88;6.18;;;8.00;98.70;;;;;;5108816;28;20187;-79
2020/12/25 07:28:46;;;;;;;7.20;6.00;;;8.00;98.70;;;;;;5110435;28;20172;-79
2020/12/25 07:31:14;;;;;;;10.07;7.90;;;8.00;98.90;;;;;;5111465;28;20226;-79
2020/12/25 07:33:43;;;;;;;11.77;8.77;;;8.00;98.80;;;;;;5110621;27;20175;-79
2020/12/25 07:36:14;;;;;;;10.13;7.93;;;8.00;98.80;;;;;;5110953;28;20192;-79
2020/12/25 07:38:43;;;;;;;9.88;7.60;;;8.00;98.70;;;;;;5108916;28;20202;-79
2020/12/25 07:41:08;;;;;;;14.20;7.43;;;8.10;98.70;;;;;;5109815;28;20183;-79
2020/12/25 07:43:34;;;;;;;7.63;6.80;;;8.00;98.80;;;;;;5108382;28;21012;-79
2020/12/25 07:46:10;;;;;;;6.90;6.20;;;8.00;99.00;;;;;;5110763;28;20203;-79
2020/12/25 07:48:41;;;;;;;7.93;7.13;;;8.00;99.00;;;;;;5108669;28;20400;-79
2020/12/25 07:51:10;;;;;;;6.70;6.00;;;8.00;98.90;;;;;;5110328;27;20175;-79
2020/12/25 07:53:37;;;;;;;13.50;8.85;;;8.00;98.90;;;;;;5108557;28;20227;-79
2020/12/25 07:56:06;;;;;;;13.23;9.00;;;8.00;98.80;;;;;;5110267;28;20636;-79
2020/12/25 07:58:40;;;;;;;14.82;9.65;;;8.00;98.90;;;;;;5109314;28;20667;-79
2020/12/25 08:01:07;;;;;;;25.45;18.33;;;8.00;99.00;;;;;;5109766;28;20180;-79
2020/12/25 08:03:36;;;;;;;36.85;22.30;;;8.00;99.00;;;;;;5109678;27;20176;-79
2020/12/25 08:06:07;;;;;;;126.13;66.05;;;8.10;98.90;;;;;;5110244;28;20632;-79
2020/12/25 08:08:36;;;;;;;86.78;42.88;;;8.10;98.90;;;;;;5109771;28;20180;-79
2020/12/25 08:11:08;;;;;;;100.00;47.45;;;8.10;98.90;;;;;;5108599;28;20195;-79
2020/12/25 08:13:39;;;;;;;112.15;50.28;;;8.10;98.80;;;;;;5109411;28;20164;-79
2020/12/25 08:16:05;;;;;;;38.92;22.15;;;8.10;98.80;;;;;;5109017;28;20228;-79
2020/12/25 08:18:36;;;;;;;51.40;29.00;;;8.10;98.90;;;;;;5110448;28;20204;-79
2020/12/25 08:21:03;;;;;;;36.08;22.75;;;8.10;99.10;;;;;;5110132;28;20521;-79
2020/12/25 08:23:35;;;;;;;31.35;19.90;;;8.20;99.00;;;;;;5108904;28;20344;-79
2020/12/25 08:26:08;;;;;;;37.35;22.17;;;8.20;99.30;;;;;;5109675;28;20282;-79
2020/12/25 08:28:51;;;;;;;55.67;33.92;;;8.10;99.00;;;;;;5109742;28;20175;-79
2020/12/25 08:31:20;;;;;;;70.18;40.35;;;8.20;98.90;;;;;;5107808;28;20187;-79
2020/12/25 08:33:56;;;;;;;67.40;43.47;;;8.20;98.90;;;;;;5109596;28;20179;-79
2020/12/25 08:36:27;;;;;;;11.93;10.70;;;8.20;98.90;;;;;;5087947;28;20192;-79
2020/12/25 08:38:56;;;;;;;8.57;7.80;;;8.20;98.70;;;;;;5087715;28;20188;-79
2020/12/25 08:41:28;;;;;;;7.13;6.40;;;8.20;98.60;;;;;;5088002;28;20189;-79
2020/12/25 08:44:10;;;;;;;7.32;6.57;;;8.20;98.80;;;;;;5087762;28;20172;-79
2020/12/25 08:46:35;;;;;;;7.72;6.57;;;8.20;98.90;;;;;;5103337;28;20187;-78
2020/12/25 08:49:07;;;;;;;15.90;12.87;;;8.10;98.90;;;;;;5108965;28;20168;-79
2020/12/25 08:51:40;;;;;;;28.58;25.98;;;8.10;99.30;;;;;;5109432;28;20305;-79
2020/12/25 08:54:08;;;;;;;14.85;13.48;;;8.10;99.10;;;;;;5109083;27;20582;-79
2020/12/25 08:56:37;;;;;;;21.20;19.17;;;8.10;99.10;;;;;;5109172;28;20176;-79
2020/12/25 08:59:07;;;;;;;27.77;24.98;;;8.10;99.10;;;;;;5109072;28;20213;-79
2020/12/25 09:01:41;;;;;;;26.25;23.63;;;8.10;99.10;;;;;;5109981;28;20211;-79
2020/12/25 09:04:19;;;;;;;19.35;17.60;;;8.10;99.20;;;;;;5108096;28;20159;-79
2020/12/25 09:06:51;;;;;;;20.58;18.67;;;8.20;98.90;;;;;;5107749;28;20176;-79
2020/12/25 09:09:20;;;;;;;28.63;26.08;;;8.20;98.80;;;;;;5109724;27;20179;-79
2020/12/25 09:11:51;;;;;;;36.58;33.17;;;8.20;99.20;;;;;;5109392;28;21007;-79
2020/12/25 09:14:23;;;;;;;33.70;30.25;;;8.20;98.80;;;;;;5109034;28;20164;-79
2020/12/25 09:16:48;;;;;;;21.77;19.00;;;8.30;99.30;;;;;;5108426;28;20227;-79
2020/12/25 09:19:20;;;;;;;17.40;15.23;;;8.30;99.00;;;;;;5108765;28;20210;-79
2020/12/25 09:21:46;;;;;;;15.48;13.88;;;8.30;98.90;;;;;;5106289;28;20188;-79
2020/12/25 09:24:11;;;;;;;13.60;11.88;;;8.40;98.80;;;;;;5108652;28;20790;-79
2020/12/25 09:26:40;;;;;;;14.30;12.80;;;8.40;98.50;;;;;;5106790;28;20215;-79
2020/12/25 09:29:09;;;;;;;13.57;10.82;;;8.40;98.80;;;;;;5108603;28;20200;-79
2020/12/25 09:31:40;;;;;;;10.20;9.18;;;8.30;98.70;;;;;;5108791;28;20175;-79
2020/12/25 09:34:06;;;;;;;9.15;7.10;;;8.30;98.70;;;;;;5107124;28;20180;-79
2020/12/25 09:36:37;;;;;;;8.17;7.33;;;8.30;98.70;;;;;;5107543;28;20190;-79
2020/12/25 09:39:14;;;;;;;9.05;7.65;;;8.30;98.90;;;;;;5107086;28;20175;-79
2020/12/25 09:41:40;;;;;;;7.50;6.80;;;8.30;99.00;;;;;;5106480;28;20183;-79
2020/12/25 09:44:06;;;;;;;10.47;8.13;;;8.30;98.80;;;;;;5108378;28;20669;-79
2020/12/25 09:46:41;;;;;;;9.20;8.23;;;8.30;98.70;;;;;;5107646;28;20539;-79
2020/12/25 09:49:06;;;;;;;6.60;6.00;;;8.30;98.80;;;;;;5108087;28;20258;-79
2020/12/25 09:51:32;;;;;;;6.80;6.10;;;8.40;98.50;;;;;;5106298;28;20279;-79
2020/12/25 09:54:00;;;;;;;7.10;6.40;;;8.40;98.60;;;;;;5106420;28;20223;-79
2020/12/25 09:56:32;;;;;;;6.82;6.13;;;8.40;98.50;;;;;;5107630;28;20259;-78
2020/12/25 09:59:00;;;;;;;7.82;7.03;;;8.40;98.40;;;;;;5107658;27;20672;-79
2020/12/25 10:01:26;;;;;;;8.32;6.40;;;8.30;98.70;;;;;;5108319;28;20172;-78
2020/12/25 10:03:55;;;;;;;7.15;6.45;;;8.40;98.70;;;;;;5106307;28;20190;-79
2020/12/25 10:06:29;;;;;;;6.72;6.05;;;8.40;98.60;;;;;;5107421;28;20175;-79
2020/12/25 10:08:58;;;;;;;6.10;5.57;;;8.40;98.40;;;;;;5105072;28;20178;-79
2020/12/25 10:11:26;;;;;;;6.72;6.13;;;8.40;98.30;;;;;;5106111;28;20647;-79
2020/12/25 10:13:55;;;;;;;5.82;5.32;;;8.40;98.30;;;;;;5107127;28;20228;-79
2020/12/25 10:16:23;;;;;;;6.95;6.28;;;8.50;98.10;;;;;;5107001;28;20171;-79
2020/12/25 10:18:49;;;;;;;7.72;7.00;;;8.50;98.20;;;;;;5104664;28;20282;-78
2020/12/25 10:21:20;;;;;;;9.70;8.80;;;8.50;98.20;;;;;;5106601;28;20237;-78
2020/12/25 10:23:55;;;;;;;9.23;8.30;;;8.50;97.90;;;;;;5107532;28;20175;-79
2020/12/25 10:26:20;;;;;;;10.30;9.23;;;8.60;97.80;;;;;;5106897;28;20232;-79
2020/12/25 10:28:52;;;;;;;8.60;7.80;;;8.60;97.70;;;;;;5107463;28;20179;-79
2020/12/25 10:31:18;;;;;;;8.88;7.65;;;8.60;97.60;;;;;;5107656;28;20232;-79
2020/12/25 10:33:49;;;;;;;9.20;8.30;;;8.60;97.40;;;;;;5106596;28;20184;-79
2020/12/25 10:36:15;;;;;;;9.95;8.95;;;8.60;97.60;;;;;;5105340;28;20191;-79
2020/12/25 10:38:40;;;;;;;11.83;10.60;;;8.50;97.20;;;;;;5105045;28;20210;-78
2020/12/25 10:41:09;;;;;;;14.17;12.87;;;8.60;97.40;;;;;;5104174;28;20183;-79
2020/12/25 10:43:38;;;;;;;14.95;13.27;;;8.50;97.70;;;;;;5102887;28;20258;-79
2020/12/25 10:46:06;;;;;;;14.52;13.07;;;8.60;97.30;;;;;;5105457;28;20183;-79
2020/12/25 10:48:35;;;;;;;16.40;14.80;;;8.60;97.50;;;;;;5105773;28;20176;-79
2020/12/25 10:51:00;;;;;;;11.57;10.43;;;8.60;97.80;;;;;;5105745;28;20647;-79
2020/12/25 10:53:26;;;;;;;10.47;9.37;;;8.60;97.50;;;;;;5107016;28;20224;-78
2020/12/25 10:55:51;;;;;;;11.27;10.10;;;8.50;97.80;;;;;;5107320;28;20228;-79
2020/12/25 10:58:17;;;;;;;12.43;11.13;;;8.40;97.70;;;;;;5106005;28;20207;-78
2020/12/25 11:00:42;;;;;;;14.93;13.53;;;8.50;97.80;;;;;;5106056;28;20175;-78
2020/12/25 11:03:08;;;;;;;12.47;11.27;;;8.50;97.90;;;;;;5106954;28;20632;-78
2020/12/25 11:05:37;;;;;;;13.90;12.50;;;8.50;97.50;;;;;;5106207;28;20229;-78
2020/12/25 11:08:02;;;;;;;14.60;13.05;;;8.60;97.50;;;;;;5106763;28;20236;-78
2020/12/25 11:10:31;;;;;;;13.73;12.33;;;8.50;97.60;;;;;;5105072;28;20643;-78
2020/12/25 11:12:59;;;;;;;17.27;15.57;;;8.60;97.40;;;;;;5105120;28;20209;-78
2020/12/25 11:15:28;;;;;;;14.38;12.98;;;8.60;97.50;;;;;;5104655;28;20278;-78
2020/12/25 11:18:05;;;;;;;15.38;13.77;;;8.60;97.70;;;;;;5106825;28;20199;-78
2020/12/25 11:20:34;;;;;;;15.90;14.30;;;8.50;97.70;;;;;;5109006;28;20212;-78
2020/12/25 11:23:11;;;;;;;16.02;14.43;;;8.50;97.50;;;;;;5109354;28;20217;-79
2020/12/25 11:25:45;;;;;;;12.45;10.65;;;8.50;97.60;;;;;;5108891;28;20570;-79
2020/12/25 11:28:11;;;;;;;15.52;10.77;;;8.50;97.50;;;;;;5107593;28;20181;-78
2020/12/25 11:30:42;;;;;;;17.60;15.03;;;8.50;97.50;;;;;;5109153;28;20176;-78
2020/12/25 11:33:08;;;;;;;13.63;11.23;;;8.60;97.70;;;;;;5111111;28;20243;-78
2020/12/25 11:35:34;;;;;;;12.57;11.37;;;8.60;97.70;;;;;;5110769;28;20700;-78
2020/12/25 11:38:05;;;;;;;14.30;12.50;;;8.70;97.80;;;;;;5110291;28;20518;-79
2020/12/25 11:40:33;;;;;;;11.45;10.35;;;8.70;97.80;;;;;;5110719;28;20185;-78
2020/12/25 11:42:59;;;;;;;9.90;8.90;;;8.70;97.70;;;;;;5110633;28;20547;-79
2020/12/25 11:45:25;;;;;;;9.80;8.57;;;8.70;97.50;;;;;;5110421;28;20180;-79
2020/12/25 11:47:50;;;;;;;12.67;11.30;;;8.70;97.50;;;;;;5110136;28;20183;-79
2020/12/25 11:50:19;;;;;;;11.43;10.33;;;8.80;97.50;;;;;;5108993;28;20188;-78
2020/12/25 11:52:53;;;;;;;11.43;9.93;;;8.80;97.30;;;;;;5108847;28;20223;-78
2020/12/25 11:55:21;;;;;;;9.15;8.25;;;8.80;97.50;;;;;;5109170;28;20678;-78
2020/12/25 11:57:50;;;;;;;9.05;7.28;;;8.70;97.50;;;;;;5109736;28;20664;-79
2020/12/25 12:00:21;;;;;;;8.20;6.70;;;8.80;97.30;;;;;;5109867;28;20640;-79
2020/12/25 12:03:08;;;;;;;7.93;6.15;;;8.70;97.50;;;;;;5108685;28;20737;-79
2020/12/25 12:05:50;;;;;;;7.43;6.72;;;8.70;97.10;;;;;;5108630;28;20723;-78
2020/12/25 12:08:18;;;;;;;8.27;7.45;;;8.70;97.10;;;;;;5108856;28;20670;-78
2020/12/25 12:10:47;;;;;;;7.78;7.07;;;8.70;97.30;;;;;;5110589;28;20191;-78
2020/12/25 12:13:15;;;;;;;22.02;16.08;;;8.70;97.40;;;;;;5108690;28;20175;-78
2020/12/25 12:15:44;;;;;;;30.83;19.48;;;8.80;97.60;;;;;;5110063;28;20180;-78
2020/12/25 12:18:12;;;;;;;53.00;32.05;;;8.80;97.00;;;;;;5109870;28;20612;-78
2020/12/25 12:20:38;;;;;;;53.40;32.72;;;8.80;97.00;;;;;;5108236;28;20698;-78
2020/12/25 12:23:09;;;;;;;33.73;23.27;;;8.80;96.80;;;;;;5109957;28;20168;-78
2020/12/25 12:25:38;;;;;;;18.45;15.55;;;8.90;96.70;;;;;;5109987;28;20210;-78
2020/12/25 12:28:16;;;;;;;15.40;12.60;;;8.80;96.20;;;;;;5108008;28;20186;-78
2020/12/25 12:30:53;;;;;;;20.00;17.15;;;8.90;95.70;;;;;;5109107;28;20184;-78
2020/12/25 12:33:28;;;;;;;15.63;12.35;;;8.80;95.60;;;;;;5109753;28;20182;-78
2020/12/25 12:35:54;;;;;;;16.92;14.80;;;8.80;96.00;;;;;;5108571;28;20261;-78
2020/12/25 12:38:19;;;;;;;14.53;13.03;;;8.70;95.90;;;;;;5108908;28;20198;-78
2020/12/25 12:40:51;;;;;;;14.97;12.47;;;8.70;96.00;;;;;;5109240;28;20527;-77
2020/12/25 12:43:16;;;;;;;16.38;12.20;;;8.70;96.10;;;;;;5110186;28;20148;-77
2020/12/25 12:45:49;;;;;;;13.57;12.07;;;8.70;95.80;;;;;;5109356;28;20548;-77
2020/12/25 12:48:14;;;;;;;26.85;22.58;;;8.60;96.20;;;;;;5109102;28;20204;-77
2020/12/25 12:50:40;;;;;;;26.77;20.30;;;8.60;96.00;;;;;;5108131;28;20192;-78
2020/12/25 12:53:15;;;;;;;30.53;24.30;;;8.60;96.30;;;;;;5108603;28;20687;-78
2020/12/25 12:55:46;;;;;;;15.40;13.80;;;8.60;96.30;;;;;;5108110;28;20426;-77
2020/12/25 12:58:12;;;;;;;12.30;11.10;;;8.60;96.10;;;;;;5107299;28;20210;-77
2020/12/25 13:00:41;;;;;;;14.23;12.00;;;8.60;95.80;;;;;;5108503;28;20184;-77